sensor_id;sensor_type;location;lat;lon;timestamp;P1;durP1;ratioP1;P2;durP2;ratioP2
42144;SDS011;27813;43.516;11.890;2023-08-24T04:34:12;2.70;;;2.20;;
42144;SDS011;27813;43.516;11.890;2023-08-24T04:38:17;7.10;;;2.50;;
42144;SDS011;27813;43.516;11.890;2023-08-24T04:42:23;3.53;;;2.22;;
42144;SDS011;27813;43.516;11.890;2023-08-24T04:46:28;2.90;;;2.15;;
42144;SDS011;27813;43.516;11.890;2023-08-24T04:50:32;3.42;;;1.85;;
42144;SDS011;27813;43.516;11.890;2023-08-24T04:54:37;4.80;;;2.78;;
42144;SDS011;27813;43.516;11.890;2023-08-24T04:58:51;3.25;;;2.35;;
42144;SDS011;27813;43.516;11.890;2023-08-24T05:08:18;3.17;;;1.83;;
42144;SDS011;27813;43.516;11.890;2023-08-24T05:12:23;3.67;;;2.20;;
42144;SDS011;27813;43.516;11.890;2023-08-24T05:16:27;3.38;;;2.47;;
42144;SDS011;27813;43.516;11.890;2023-08-24T05:20:32;3.38;;;2.33;;
42144;SDS011;27813;43.516;11.890;2023-08-24T05:24:40;3.17;;;2.28;;
42144;SDS011;27813;43.516;11.890;2023-08-24T05:28:54;3.50;;;2.22;;
42144;SDS011;27813;43.516;11.890;2023-08-24T05:32:59;3.65;;;2.28;;
42144;SDS011;27813;43.516;11.890;2023-08-24T05:37:10;2.90;;;2.17;;
42144;SDS011;27813;43.516;11.890;2023-08-24T05:41:14;3.70;;;2.22;;
42144;SDS011;27813;43.516;11.890;2023-08-24T05:50:06;2.65;;;2.10;;
42144;SDS011;27813;43.516;11.890;2023-08-24T05:54:11;3.33;;;2.63;;
42144;SDS011;27813;43.516;11.890;2023-08-24T05:58:19;5.82;;;2.28;;
42144;SDS011;27813;43.516;11.890;2023-08-24T06:02:23;3.58;;;1.98;;
42144;SDS011;27813;43.516;11.890;2023-08-24T06:06:28;3.25;;;2.10;;
42144;SDS011;27813;43.516;11.890;2023-08-24T06:10:32;3.15;;;1.92;;
42144;SDS011;27813;43.516;11.890;2023-08-24T06:14:38;3.45;;;2.08;;
42144;SDS011;27813;43.516;11.890;2023-08-24T06:18:42;4.25;;;2.10;;
42144;SDS011;27813;43.516;11.890;2023-08-24T06:22:48;3.30;;;2.20;;
42144;SDS011;27813;43.516;11.890;2023-08-24T06:26:53;3.30;;;2.45;;
42144;SDS011;27813;43.516;11.890;2023-08-24T06:30:59;3.05;;;2.28;;
42144;SDS011;27813;43.516;11.890;2023-08-24T06:35:04;3.20;;;2.45;;
42144;SDS011;27813;43.516;11.890;2023-08-24T06:39:10;3.63;;;2.55;;
42144;SDS011;27813;43.516;11.890;2023-08-24T06:43:15;3.50;;;2.63;;
42144;SDS011;27813;43.516;11.890;2023-08-24T06:47:19;3.50;;;2.65;;
42144;SDS011;27813;43.516;11.890;2023-08-24T06:51:25;7.43;;;2.80;;
42144;SDS011;27813;43.516;11.890;2023-08-24T06:55:30;3.25;;;2.40;;
42144;SDS011;27813;43.516;11.890;2023-08-24T06:59:37;3.28;;;2.53;;
42144;SDS011;27813;43.516;11.890;2023-08-24T07:03:42;2.95;;;2.13;;
42144;SDS011;27813;43.516;11.890;2023-08-24T07:07:47;3.85;;;2.20;;
42144;SDS011;27813;43.516;11.890;2023-08-24T07:11:54;4.47;;;1.98;;
42144;SDS011;27813;43.516;11.890;2023-08-24T07:15:59;2.80;;;2.05;;
42144;SDS011;27813;43.516;11.890;2023-08-24T07:20:04;4.43;;;2.40;;
42144;SDS011;27813;43.516;11.890;2023-08-24T07:24:09;4.03;;;2.33;;
42144;SDS011;27813;43.516;11.890;2023-08-24T07:28:14;3.30;;;2.47;;
42144;SDS011;27813;43.516;11.890;2023-08-24T07:32:18;3.40;;;2.30;;
42144;SDS011;27813;43.516;11.890;2023-08-24T07:36:23;4.45;;;2.35;;
42144;SDS011;27813;43.516;11.890;2023-08-24T07:40:28;4.68;;;2.38;;
42144;SDS011;27813;43.516;11.890;2023-08-24T07:44:32;5.10;;;2.15;;
42144;SDS011;27813;43.516;11.890;2023-08-24T07:48:37;3.35;;;2.13;;
42144;SDS011;27813;43.516;11.890;2023-08-24T07:52:42;3.10;;;2.22;;
42144;SDS011;27813;43.516;11.890;2023-08-24T07:56:47;3.33;;;2.35;;
42144;SDS011;27813;43.516;11.890;2023-08-24T08:00:51;4.40;;;2.03;;
42144;SDS011;27813;43.516;11.890;2023-08-24T08:04:56;3.15;;;2.30;;
42144;SDS011;27813;43.516;11.890;2023-08-24T08:09:03;4.53;;;2.13;;
42144;SDS011;27813;43.516;11.890;2023-08-24T08:13:09;3.85;;;1.92;;
42144;SDS011;27813;43.516;11.890;2023-08-24T08:17:16;4.22;;;2.10;;
42144;SDS011;27813;43.516;11.890;2023-08-24T08:21:21;2.45;;;2.25;;
42144;SDS011;27813;43.516;11.890;2023-08-24T08:25:26;3.40;;;2.30;;
42144;SDS011;27813;43.516;11.890;2023-08-24T08:29:34;3.60;;;2.40;;
42144;SDS011;27813;43.516;11.890;2023-08-24T08:33:38;4.05;;;2.58;;
42144;SDS011;27813;43.516;11.890;2023-08-24T08:37:42;3.40;;;2.40;;
42144;SDS011;27813;43.516;11.890;2023-08-24T08:41:47;3.75;;;2.20;;
42144;SDS011;27813;43.516;11.890;2023-08-24T08:45:53;3.40;;;2.10;;
42144;SDS011;27813;43.516;11.890;2023-08-24T08:50:00;4.72;;;2.20;;
42144;SDS011;27813;43.516;11.890;2023-08-24T08:54:06;2.55;;;1.90;;
42144;SDS011;27813;43.516;11.890;2023-08-24T08:58:11;3.42;;;2.40;;
42144;SDS011;27813;43.516;11.890;2023-08-24T09:02:19;3.78;;;2.33;;
42144;SDS011;27813;43.516;11.890;2023-08-24T09:06:25;3.40;;;2.78;;
42144;SDS011;27813;43.516;11.890;2023-08-24T09:10:29;3.72;;;2.58;;
42144;SDS011;27813;43.516;11.890;2023-08-24T09:14:34;2.95;;;2.38;;
42144;SDS011;27813;43.516;11.890;2023-08-24T09:18:41;4.45;;;2.63;;
42144;SDS011;27813;43.516;11.890;2023-08-24T09:22:49;3.33;;;2.60;;
42144;SDS011;27813;43.516;11.890;2023-08-24T09:26:58;3.38;;;3.00;;
42144;SDS011;27813;43.516;11.890;2023-08-24T09:31:02;3.63;;;2.80;;
42144;SDS011;27813;43.516;11.890;2023-08-24T09:35:08;3.83;;;2.85;;
42144;SDS011;27813;43.516;11.890;2023-08-24T09:39:16;3.10;;;2.80;;
42144;SDS011;27813;43.516;11.890;2023-08-24T09:43:21;4.38;;;3.65;;
42144;SDS011;27813;43.516;11.890;2023-08-24T09:47:27;3.60;;;3.30;;
42144;SDS011;27813;43.516;11.890;2023-08-24T09:51:33;4.25;;;3.70;;
42144;SDS011;27813;43.516;11.890;2023-08-24T09:55:39;4.50;;;4.00;;
42144;SDS011;27813;43.516;11.890;2023-08-24T09:59:45;5.63;;;4.32;;
42144;SDS011;27813;43.516;11.890;2023-08-24T10:03:51;4.90;;;4.40;;
42144;SDS011;27813;43.516;11.890;2023-08-24T10:07:57;5.97;;;4.82;;
42144;SDS011;27813;43.516;11.890;2023-08-24T10:12:03;7.97;;;5.40;;
42144;SDS011;27813;43.516;11.890;2023-08-24T10:16:12;5.20;;;4.75;;
42144;SDS011;27813;43.516;11.890;2023-08-24T10:20:18;6.80;;;5.50;;
42144;SDS011;27813;43.516;11.890;2023-08-24T10:24:24;5.75;;;4.85;;
42144;SDS011;27813;43.516;11.890;2023-08-24T10:28:29;5.65;;;5.07;;
42144;SDS011;27813;43.516;11.890;2023-08-24T10:32:35;5.55;;;5.00;;
42144;SDS011;27813;43.516;11.890;2023-08-24T10:36:41;5.82;;;5.32;;
42144;SDS011;27813;43.516;11.890;2023-08-24T10:40:47;5.68;;;5.07;;
42144;SDS011;27813;43.516;11.890;2023-08-24T10:49:28;4.93;;;4.43;;
42144;SDS011;27813;43.516;11.890;2023-08-24T10:53:39;5.38;;;4.88;;
42144;SDS011;27813;43.516;11.890;2023-08-24T10:57:45;7.40;;;4.85;;
42144;SDS011;27813;43.516;11.890;2023-08-24T11:01:59;5.07;;;4.60;;
42144;SDS011;27813;43.516;11.890;2023-08-24T11:06:17;3.75;;;3.25;;
42144;SDS011;27813;43.516;11.890;2023-08-24T11:14:48;4.10;;;3.80;;
42144;SDS011;27813;43.516;11.890;2023-08-24T11:19:02;5.80;;;4.03;;
42144;SDS011;27813;43.516;11.890;2023-08-24T11:23:10;4.55;;;4.03;;
42144;SDS011;27813;43.516;11.890;2023-08-24T11:27:15;3.55;;;3.25;;
42144;SDS011;27813;43.516;11.890;2023-08-24T11:31:19;5.85;;;3.72;;
42144;SDS011;27813;43.516;11.890;2023-08-24T11:35:25;4.78;;;4.30;;
42144;SDS011;27813;43.516;11.890;2023-08-24T11:39:30;5.07;;;3.95;;
42144;SDS011;27813;43.516;11.890;2023-08-24T11:43:37;4.57;;;4.00;;
42144;SDS011;27813;43.516;11.890;2023-08-24T11:47:42;7.57;;;3.97;;
42144;SDS011;27813;43.516;11.890;2023-08-24T11:51:47;4.35;;;3.30;;
42144;SDS011;27813;43.516;11.890;2023-08-24T11:55:53;4.25;;;3.85;;
42144;SDS011;27813;43.516;11.890;2023-08-24T12:00:09;4.00;;;3.60;;
42144;SDS011;27813;43.516;11.890;2023-08-24T12:04:17;5.15;;;4.65;;
42144;SDS011;27813;43.516;11.890;2023-08-24T12:08:21;3.97;;;3.60;;
42144;SDS011;27813;43.516;11.890;2023-08-24T12:12:26;5.22;;;3.40;;
42144;SDS011;27813;43.516;11.890;2023-08-24T12:16:37;3.90;;;3.38;;
42144;SDS011;27813;43.516;11.890;2023-08-24T12:20:41;4.20;;;3.80;;
42144;SDS011;27813;43.516;11.890;2023-08-24T12:24:47;4.40;;;3.58;;
42144;SDS011;27813;43.516;11.890;2023-08-24T12:28:52;4.40;;;3.08;;
42144;SDS011;27813;43.516;11.890;2023-08-24T12:32:57;4.22;;;3.70;;
42144;SDS011;27813;43.516;11.890;2023-08-24T12:37:01;5.05;;;3.28;;
42144;SDS011;27813;43.516;11.890;2023-08-24T12:41:05;6.10;;;3.17;;
42144;SDS011;27813;43.516;11.890;2023-08-24T12:45:10;3.28;;;2.40;;
42144;SDS011;27813;43.516;11.890;2023-08-24T12:49:14;10.10;;;3.47;;
42144;SDS011;27813;43.516;11.890;2023-08-24T12:53:19;5.28;;;3.53;;
42144;SDS011;27813;43.516;11.890;2023-08-24T12:57:23;4.03;;;3.22;;
42144;SDS011;27813;43.516;11.890;2023-08-24T13:01:28;5.88;;;2.95;;
42144;SDS011;27813;43.516;11.890;2023-08-24T13:05:32;4.13;;;2.95;;
42144;SDS011;27813;43.516;11.890;2023-08-24T13:09:37;5.78;;;2.95;;
42144;SDS011;27813;43.516;11.890;2023-08-24T13:13:41;3.45;;;2.90;;
42144;SDS011;27813;43.516;11.890;2023-08-24T13:17:47;3.47;;;3.15;;
42144;SDS011;27813;43.516;11.890;2023-08-24T13:21:52;5.63;;;3.50;;
42144;SDS011;27813;43.516;11.890;2023-08-24T13:25:57;3.58;;;3.28;;
42144;SDS011;27813;43.516;11.890;2023-08-24T13:30:02;6.13;;;3.33;;
42144;SDS011;27813;43.516;11.890;2023-08-24T13:34:07;3.53;;;3.00;;
42144;SDS011;27813;43.516;11.890;2023-08-24T13:38:15;4.60;;;3.45;;
42144;SDS011;27813;43.516;11.890;2023-08-24T13:42:20;3.50;;;3.08;;
42144;SDS011;27813;43.516;11.890;2023-08-24T13:46:24;3.83;;;3.17;;
42144;SDS011;27813;43.516;11.890;2023-08-24T13:50:31;5.13;;;3.58;;
42144;SDS011;27813;43.516;11.890;2023-08-24T13:54:37;3.83;;;3.42;;
42144;SDS011;27813;43.516;11.890;2023-08-24T13:58:41;4.50;;;3.45;;
42144;SDS011;27813;43.516;11.890;2023-08-24T14:02:46;4.38;;;3.50;;
42144;SDS011;27813;43.516;11.890;2023-08-24T14:06:52;3.83;;;3.42;;
42144;SDS011;27813;43.516;11.890;2023-08-24T14:10:56;4.05;;;3.65;;
42144;SDS011;27813;43.516;11.890;2023-08-24T14:15:01;5.50;;;3.55;;
42144;SDS011;27813;43.516;11.890;2023-08-24T14:19:05;4.75;;;3.38;;
42144;SDS011;27813;43.516;11.890;2023-08-24T14:23:10;4.00;;;3.25;;
42144;SDS011;27813;43.516;11.890;2023-08-24T14:27:14;5.00;;;3.60;;
42144;SDS011;27813;43.516;11.890;2023-08-24T14:31:19;3.88;;;3.05;;
42144;SDS011;27813;43.516;11.890;2023-08-24T14:35:33;5.05;;;3.90;;
42144;SDS011;27813;43.516;11.890;2023-08-24T14:39:38;4.03;;;2.95;;
42144;SDS011;27813;43.516;11.890;2023-08-24T14:43:42;6.68;;;4.45;;
42144;SDS011;27813;43.516;11.890;2023-08-24T14:47:46;4.47;;;3.70;;
42144;SDS011;27813;43.516;11.890;2023-08-24T14:51:51;4.22;;;3.45;;
42144;SDS011;27813;43.516;11.890;2023-08-24T14:55:56;4.47;;;3.40;;
42144;SDS011;27813;43.516;11.890;2023-08-24T15:00:01;5.22;;;3.58;;
42144;SDS011;27813;43.516;11.890;2023-08-24T15:04:08;4.47;;;3.63;;
42144;SDS011;27813;43.516;11.890;2023-08-24T15:13:07;3.53;;;3.05;;
42144;SDS011;27813;43.516;11.890;2023-08-24T15:17:14;3.50;;;3.20;;
42144;SDS011;27813;43.516;11.890;2023-08-24T15:27:25;5.38;;;3.40;;
42144;SDS011;27813;43.516;11.890;2023-08-24T15:31:29;4.78;;;3.60;;
42144;SDS011;27813;43.516;11.890;2023-08-24T15:35:34;5.93;;;3.75;;
42144;SDS011;27813;43.516;11.890;2023-08-24T15:39:39;6.72;;;4.13;;
42144;SDS011;27813;43.516;11.890;2023-08-24T15:48:39;5.03;;;3.45;;
42144;SDS011;27813;43.516;11.890;2023-08-24T15:52:43;4.13;;;3.28;;
42144;SDS011;27813;43.516;11.890;2023-08-24T15:56:48;5.72;;;3.58;;
42144;SDS011;27813;43.516;11.890;2023-08-24T16:00:53;4.03;;;3.47;;
42144;SDS011;27813;43.516;11.890;2023-08-24T16:04:58;4.93;;;3.65;;
42144;SDS011;27813;43.516;11.890;2023-08-24T16:09:11;5.68;;;3.60;;
42144;SDS011;27813;43.516;11.890;2023-08-24T16:13:16;5.40;;;4.00;;
42144;SDS011;27813;43.516;11.890;2023-08-24T16:17:21;4.18;;;3.78;;
42144;SDS011;27813;43.516;11.890;2023-08-24T16:21:29;4.78;;;4.25;;
42144;SDS011;27813;43.516;11.890;2023-08-24T16:25:33;8.20;;;3.85;;
42144;SDS011;27813;43.516;11.890;2023-08-24T16:29:38;4.55;;;4.05;;
42144;SDS011;27813;43.516;11.890;2023-08-24T16:33:42;6.15;;;3.63;;
42144;SDS011;27813;43.516;11.890;2023-08-24T16:37:47;5.88;;;4.63;;
42144;SDS011;27813;43.516;11.890;2023-08-24T16:41:51;5.18;;;3.78;;
42144;SDS011;27813;43.516;11.890;2023-08-24T16:45:59;4.80;;;3.80;;
42144;SDS011;27813;43.516;11.890;2023-08-24T16:50:04;5.75;;;3.70;;
42144;SDS011;27813;43.516;11.890;2023-08-24T16:54:09;4.18;;;3.78;;
42144;SDS011;27813;43.516;11.890;2023-08-24T16:58:14;5.57;;;3.95;;
42144;SDS011;27813;43.516;11.890;2023-08-24T17:02:18;8.02;;;3.83;;
42144;SDS011;27813;43.516;11.890;2023-08-24T17:06:23;7.75;;;3.95;;
42144;SDS011;27813;43.516;11.890;2023-08-24T17:10:37;5.75;;;3.67;;
42144;SDS011;27813;43.516;11.890;2023-08-24T17:14:46;5.35;;;3.85;;
42144;SDS011;27813;43.516;11.890;2023-08-24T17:18:51;6.95;;;4.32;;
42144;SDS011;27813;43.516;11.890;2023-08-24T17:22:58;4.80;;;3.45;;
42144;SDS011;27813;43.516;11.890;2023-08-24T17:27:03;4.82;;;3.55;;
42144;SDS011;27813;43.516;11.890;2023-08-24T17:31:09;5.07;;;3.55;;
42144;SDS011;27813;43.516;11.890;2023-08-24T17:35:16;5.35;;;3.70;;
42144;SDS011;27813;43.516;11.890;2023-08-24T17:39:21;6.35;;;3.42;;
42144;SDS011;27813;43.516;11.890;2023-08-24T17:43:29;5.68;;;3.10;;
42144;SDS011;27813;43.516;11.890;2023-08-24T17:47:49;6.70;;;3.45;;
42144;SDS011;27813;43.516;11.890;2023-08-24T17:51:54;4.68;;;3.20;;
42144;SDS011;27813;43.516;11.890;2023-08-24T17:55:59;3.50;;;3.00;;
42144;SDS011;27813;43.516;11.890;2023-08-24T18:00:04;4.55;;;3.25;;
42144;SDS011;27813;43.516;11.890;2023-08-24T18:04:11;3.88;;;3.22;;
42144;SDS011;27813;43.516;11.890;2023-08-24T18:08:16;4.85;;;2.95;;
42144;SDS011;27813;43.516;11.890;2023-08-24T18:12:20;4.72;;;3.30;;
42144;SDS011;27813;43.516;11.890;2023-08-24T18:16:26;4.22;;;2.92;;
42144;SDS011;27813;43.516;11.890;2023-08-24T18:20:31;5.15;;;3.05;;
42144;SDS011;27813;43.516;11.890;2023-08-24T18:24:36;4.47;;;3.40;;
42144;SDS011;27813;43.516;11.890;2023-08-24T18:28:45;3.83;;;3.20;;
42144;SDS011;27813;43.516;11.890;2023-08-24T18:32:53;4.32;;;3.15;;
42144;SDS011;27813;43.516;11.890;2023-08-24T18:36:57;7.40;;;3.45;;
42144;SDS011;27813;43.516;11.890;2023-08-24T18:41:04;6.38;;;3.88;;
42144;SDS011;27813;43.516;11.890;2023-08-24T18:45:09;8.57;;;3.05;;
42144;SDS011;27813;43.516;11.890;2023-08-24T18:49:14;4.78;;;3.00;;
42144;SDS011;27813;43.516;11.890;2023-08-24T18:53:19;5.60;;;3.63;;
42144;SDS011;27813;43.516;11.890;2023-08-24T18:57:24;8.95;;;3.70;;
42144;SDS011;27813;43.516;11.890;2023-08-24T19:01:31;3.35;;;2.88;;
42144;SDS011;27813;43.516;11.890;2023-08-24T19:05:38;8.52;;;3.22;;
42144;SDS011;27813;43.516;11.890;2023-08-24T19:09:45;4.43;;;3.20;;
42144;SDS011;27813;43.516;11.890;2023-08-24T19:13:50;7.80;;;4.22;;
42144;SDS011;27813;43.516;11.890;2023-08-24T19:17:55;5.53;;;3.17;;
42144;SDS011;27813;43.516;11.890;2023-08-24T19:22:00;5.38;;;3.70;;
42144;SDS011;27813;43.516;11.890;2023-08-24T19:26:04;4.82;;;3.15;;
42144;SDS011;27813;43.516;11.890;2023-08-24T19:30:09;6.65;;;3.42;;
42144;SDS011;27813;43.516;11.890;2023-08-24T19:34:13;5.63;;;3.65;;
42144;SDS011;27813;43.516;11.890;2023-08-24T19:38:18;3.92;;;3.25;;
42144;SDS011;27813;43.516;11.890;2023-08-24T19:42:22;5.15;;;4.18;;
42144;SDS011;27813;43.516;11.890;2023-08-24T19:46:29;20.45;;;5.38;;
42144;SDS011;27813;43.516;11.890;2023-08-24T19:50:34;6.82;;;4.13;;
42144;SDS011;27813;43.516;11.890;2023-08-24T19:54:38;6.00;;;3.53;;
42144;SDS011;27813;43.516;11.890;2023-08-24T19:58:43;7.45;;;4.03;;
42144;SDS011;27813;43.516;11.890;2023-08-24T20:02:47;6.57;;;4.97;;
42144;SDS011;27813;43.516;11.890;2023-08-24T20:06:54;7.20;;;4.03;;
42144;SDS011;27813;43.516;11.890;2023-08-24T20:11:01;6.35;;;3.88;;
42144;SDS011;27813;43.516;11.890;2023-08-24T20:15:06;7.10;;;5.18;;
42144;SDS011;27813;43.516;11.890;2023-08-24T20:19:12;7.30;;;4.70;;
42144;SDS011;27813;43.516;11.890;2023-08-24T20:23:17;5.88;;;4.93;;
42144;SDS011;27813;43.516;11.890;2023-08-24T20:27:21;5.78;;;4.68;;
42144;SDS011;27813;43.516;11.890;2023-08-24T20:31:26;6.60;;;4.57;;
42144;SDS011;27813;43.516;11.890;2023-08-24T20:35:33;6.07;;;4.88;;
42144;SDS011;27813;43.516;11.890;2023-08-24T20:39:38;6.95;;;4.30;;
42144;SDS011;27813;43.516;11.890;2023-08-24T20:43:42;4.63;;;4.22;;
42144;SDS011;27813;43.516;11.890;2023-08-24T20:47:48;6.05;;;4.85;;
42144;SDS011;27813;43.516;11.890;2023-08-24T20:51:54;5.10;;;4.60;;
42144;SDS011;27813;43.516;11.890;2023-08-24T20:55:58;5.50;;;4.40;;
42144;SDS011;27813;43.516;11.890;2023-08-24T21:00:03;6.35;;;4.75;;
42144;SDS011;27813;43.516;11.890;2023-08-24T21:04:09;10.35;;;5.43;;
42144;SDS011;27813;43.516;11.890;2023-08-24T21:08:13;6.70;;;4.82;;
42144;SDS011;27813;43.516;11.890;2023-08-24T21:12:20;5.90;;;4.78;;
42144;SDS011;27813;43.516;11.890;2023-08-24T21:16:25;5.28;;;4.78;;
42144;SDS011;27813;43.516;11.890;2023-08-24T21:20:29;10.70;;;5.40;;
42144;SDS011;27813;43.516;11.890;2023-08-24T21:24:34;5.90;;;4.05;;
42144;SDS011;27813;43.516;11.890;2023-08-24T21:28:39;7.05;;;4.82;;
42144;SDS011;27813;43.516;11.890;2023-08-24T21:32:43;5.82;;;4.45;;
42144;SDS011;27813;43.516;11.890;2023-08-24T21:36:52;5.90;;;4.43;;
42144;SDS011;27813;43.516;11.890;2023-08-24T21:41:01;6.18;;;4.20;;
42144;SDS011;27813;43.516;11.890;2023-08-24T21:45:10;7.07;;;4.25;;
42144;SDS011;27813;43.516;11.890;2023-08-24T21:49:14;5.40;;;4.57;;
42144;SDS011;27813;43.516;11.890;2023-08-24T21:53:19;4.85;;;4.35;;
42144;SDS011;27813;43.516;11.890;2023-08-24T21:57:24;5.70;;;4.82;;
42144;SDS011;27813;43.516;11.890;2023-08-24T22:01:28;5.90;;;4.40;;
42144;SDS011;27813;43.516;11.890;2023-08-24T22:05:33;7.60;;;5.10;;
42144;SDS011;27813;43.516;11.890;2023-08-24T22:09:37;6.07;;;4.60;;
42144;SDS011;27813;43.516;11.890;2023-08-24T22:13:43;5.65;;;4.82;;
42144;SDS011;27813;43.516;11.890;2023-08-24T22:17:48;5.75;;;4.60;;
42144;SDS011;27813;43.516;11.890;2023-08-24T22:21:52;6.75;;;5.07;;
42144;SDS011;27813;43.516;11.890;2023-08-24T22:25:57;5.10;;;4.60;;
42144;SDS011;27813;43.516;11.890;2023-08-24T22:30:02;6.68;;;5.18;;
42144;SDS011;27813;43.516;11.890;2023-08-24T22:34:09;7.88;;;5.13;;
42144;SDS011;27813;43.516;11.890;2023-08-24T22:38:13;6.82;;;5.38;;
42144;SDS011;27813;43.516;11.890;2023-08-24T22:42:18;5.88;;;4.72;;
42144;SDS011;27813;43.516;11.890;2023-08-24T22:46:22;5.03;;;4.47;;
42144;SDS011;27813;43.516;11.890;2023-08-24T22:50:27;5.60;;;4.80;;
42144;SDS011;27813;43.516;11.890;2023-08-24T22:54:31;7.82;;;5.47;;
42144;SDS011;27813;43.516;11.890;2023-08-24T22:58:36;8.45;;;5.20;;
42144;SDS011;27813;43.516;11.890;2023-08-24T23:02:40;5.65;;;5.03;;
42144;SDS011;27813;43.516;11.890;2023-08-24T23:10:58;6.47;;;5.03;;
42144;SDS011;27813;43.516;11.890;2023-08-24T23:15:03;7.22;;;4.97;;
42144;SDS011;27813;43.516;11.890;2023-08-24T23:19:08;11.05;;;5.82;;
42144;SDS011;27813;43.516;11.890;2023-08-24T23:27:46;6.07;;;5.20;;
